sensor_id;sensor_type;location;lat;lon;timestamp;pressure;altitude;pressure_sealevel;temperature;humidity
70015;BME280;57358;51.094;6.760;2023-05-21T00:02:18;101135.50;;;12.67;99.83
70015;BME280;57358;51.094;6.760;2023-05-21T00:04:45;101135.22;;;12.72;100.00
70015;BME280;57358;51.094;6.760;2023-05-21T00:07:11;101086.00;;;12.41;100.00
70015;BME280;57358;51.094;6.760;2023-05-21T00:09:38;101173.72;;;12.90;100.00
70015;BME280;57358;51.094;6.760;2023-05-21T00:12:06;101149.16;;;12.74;100.00
70015;BME280;57358;51.094;6.760;2023-05-21T00:14:33;101202.16;;;13.01;100.00
70015;BME280;57358;51.094;6.760;2023-05-21T00:17:00;101194.47;;;12.96;100.00
70015;BME280;57358;51.094;6.760;2023-05-21T00:19:26;101191.94;;;12.95;100.00
70015;BME280;57358;51.094;6.760;2023-05-21T00:21:53;101192.03;;;12.93;100.00
70015;BME280;57358;51.094;6.760;2023-05-21T00:24:20;101186.84;;;12.92;100.00
70015;BME280;57358;51.094;6.760;2023-05-21T00:26:46;101125.50;;;12.56;100.00
70015;BME280;57358;51.094;6.760;2023-05-21T00:29:13;101109.53;;;12.44;100.00
70015;BME280;57358;51.094;6.760;2023-05-21T00:31:41;101188.19;;;12.83;100.00
70015;BME280;57358;51.094;6.760;2023-05-21T00:34:08;101177.88;;;12.78;100.00
70015;BME280;57358;51.094;6.760;2023-05-21T00:36:35;101145.16;;;12.51;100.00
70015;BME280;57358;51.094;6.760;2023-05-21T00:39:01;101159.16;;;12.51;100.00
70015;BME280;57358;51.094;6.760;2023-05-21T00:41:29;101184.75;;;12.65;100.00
70015;BME280;57358;51.094;6.760;2023-05-21T00:43:56;101120.16;;;12.25;100.00
70015;BME280;57358;51.094;6.760;2023-05-21T00:46:25;101149.94;;;12.43;100.00
70015;BME280;57358;51.094;6.760;2023-05-21T00:48:54;101176.94;;;12.64;100.00
70015;BME280;57358;51.094;6.760;2023-05-21T00:51:23;101096.03;;;12.16;100.00
70015;BME280;57358;51.094;6.760;2023-05-21T00:53:51;101117.91;;;12.34;100.00
70015;BME280;57358;51.094;6.760;2023-05-21T00:56:19;101110.19;;;12.31;100.00
70015;BME280;57358;51.094;6.760;2023-05-21T00:58:47;101171.66;;;12.64;100.00
70015;BME280;57358;51.094;6.760;2023-05-21T01:01:13;101163.13;;;12.58;100.00
70015;BME280;57358;51.094;6.760;2023-05-21T01:03:41;101130.53;;;12.45;100.00
70015;BME280;57358;51.094;6.760;2023-05-21T01:06:09;101162.16;;;12.61;100.00
70015;BME280;57358;51.094;6.760;2023-05-21T01:08:37;101163.69;;;12.65;100.00
70015;BME280;57358;51.094;6.760;2023-05-21T01:11:05;101093.66;;;12.12;100.00
70015;BME280;57358;51.094;6.760;2023-05-21T01:13:34;101141.13;;;12.44;100.00
70015;BME280;57358;51.094;6.760;2023-05-21T01:16:03;100989.75;;;11.52;100.00
70015;BME280;57358;51.094;6.760;2023-05-21T01:18:32;101118.22;;;12.28;100.00
70015;BME280;57358;51.094;6.760;2023-05-21T01:21:09;101096.28;;;12.12;100.00
70015;BME280;57358;51.094;6.760;2023-05-21T01:23:38;101080.47;;;11.96;100.00
70015;BME280;57358;51.094;6.760;2023-05-21T01:26:04;101148.06;;;12.45;100.00
70015;BME280;57358;51.094;6.760;2023-05-21T01:28:32;101159.69;;;12.41;100.00
70015;BME280;57358;51.094;6.760;2023-05-21T01:33:47;101145.94;;;12.35;100.00
70015;BME280;57358;51.094;6.760;2023-05-21T01:36:20;101155.69;;;12.33;100.00
70015;BME280;57358;51.094;6.760;2023-05-21T01:38:59;101141.31;;;12.23;100.00
70015;BME280;57358;51.094;6.760;2023-05-21T01:41:28;101129.47;;;12.14;100.00
70015;BME280;57358;51.094;6.760;2023-05-21T01:44:01;101083.53;;;11.87;100.00
70015;BME280;57358;51.094;6.760;2023-05-21T01:46:29;101103.97;;;11.99;100.00
70015;BME280;57358;51.094;6.760;2023-05-21T01:48:57;101142.69;;;12.30;100.00
70015;BME280;57358;51.094;6.760;2023-05-21T01:51:24;101102.19;;;12.00;100.00
70015;BME280;57358;51.094;6.760;2023-05-21T01:53:51;101099.13;;;11.91;100.00
70015;BME280;57358;51.094;6.760;2023-05-21T01:56:18;101060.66;;;11.71;100.00
70015;BME280;57358;51.094;6.760;2023-05-21T01:58:44;101132.09;;;12.14;100.00
70015;BME280;57358;51.094;6.760;2023-05-21T02:01:11;101129.59;;;12.13;100.00
70015;BME280;57358;51.094;6.760;2023-05-21T02:03:37;101099.03;;;11.93;100.00
70015;BME280;57358;51.094;6.760;2023-05-21T02:06:04;101130.88;;;12.04;100.00
70015;BME280;57358;51.094;6.760;2023-05-21T02:08:31;101138.56;;;12.09;100.00
70015;BME280;57358;51.094;6.760;2023-05-21T02:10:58;101138.78;;;12.04;100.00
70015;BME280;57358;51.094;6.760;2023-05-21T02:13:25;101130.19;;;12.01;100.00
70015;BME280;57358;51.094;6.760;2023-05-21T02:15:52;101081.00;;;11.68;100.00
70015;BME280;57358;51.094;6.760;2023-05-21T02:18:20;101046.22;;;11.45;100.00
70015;BME280;57358;51.094;6.760;2023-05-21T02:20:46;101078.97;;;11.55;100.00
70015;BME280;57358;51.094;6.760;2023-05-21T02:23:13;101133.38;;;11.90;100.00
70015;BME280;57358;51.094;6.760;2023-05-21T02:25:39;101043.19;;;11.35;100.00
70015;BME280;57358;51.094;6.760;2023-05-21T02:28:06;101132.53;;;11.89;100.00
70015;BME280;57358;51.094;6.760;2023-05-21T02:30:33;101123.84;;;11.87;100.00
70015;BME280;57358;51.094;6.760;2023-05-21T02:32:59;101069.38;;;11.54;100.00
70015;BME280;57358;51.094;6.760;2023-05-21T02:35:26;101129.94;;;11.88;100.00
70015;BME280;57358;51.094;6.760;2023-05-21T02:37:53;101036.44;;;11.30;100.00
70015;BME280;57358;51.094;6.760;2023-05-21T02:40:24;101074.03;;;11.49;100.00
70015;BME280;57358;51.094;6.760;2023-05-21T02:42:50;101069.69;;;11.48;100.00
70015;BME280;57358;51.094;6.760;2023-05-21T02:45:17;101118.13;;;11.79;100.00
70015;BME280;57358;51.094;6.760;2023-05-21T02:47:43;101034.66;;;11.30;100.00
70015;BME280;57358;51.094;6.760;2023-05-21T02:50:12;101039.72;;;11.35;100.00
70015;BME280;57358;51.094;6.760;2023-05-21T02:52:38;101034.53;;;11.33;100.00
70015;BME280;57358;51.094;6.760;2023-05-21T02:55:05;101095.22;;;11.64;100.00
70015;BME280;57358;51.094;6.760;2023-05-21T02:57:32;101061.66;;;11.51;100.00
70015;BME280;57358;51.094;6.760;2023-05-21T02:59:58;101059.94;;;11.50;100.00
70015;BME280;57358;51.094;6.760;2023-05-21T03:02:25;101112.84;;;11.79;100.00
70015;BME280;57358;51.094;6.760;2023-05-21T03:04:51;101063.44;;;11.51;100.00
70015;BME280;57358;51.094;6.760;2023-05-21T03:07:18;101091.69;;;11.65;100.00
70015;BME280;57358;51.094;6.760;2023-05-21T03:09:45;101054.22;;;11.42;100.00
70015;BME280;57358;51.094;6.760;2023-05-21T03:12:12;101068.53;;;11.54;100.00
70015;BME280;57358;51.094;6.760;2023-05-21T03:14:39;101052.25;;;11.47;100.00
70015;BME280;57358;51.094;6.760;2023-05-21T03:17:07;101092.22;;;11.71;100.00
70015;BME280;57358;51.094;6.760;2023-05-21T03:19:35;101091.38;;;11.71;100.00
70015;BME280;57358;51.094;6.760;2023-05-21T03:22:05;101101.72;;;11.74;100.00
70015;BME280;57358;51.094;6.760;2023-05-21T03:24:32;101100.88;;;11.73;100.00
70015;BME280;57358;51.094;6.760;2023-05-21T03:26:59;101054.09;;;11.45;100.00
70015;BME280;57358;51.094;6.760;2023-05-21T03:29:27;101022.53;;;11.28;100.00
70015;BME280;57358;51.094;6.760;2023-05-21T03:31:53;101055.47;;;11.52;100.00
70015;BME280;57358;51.094;6.760;2023-05-21T03:34:20;101097.09;;;11.79;100.00
70015;BME280;57358;51.094;6.760;2023-05-21T03:36:47;101093.44;;;11.82;100.00
70015;BME280;57358;51.094;6.760;2023-05-21T03:39:13;100928.72;;;10.77;100.00
70015;BME280;57358;51.094;6.760;2023-05-21T03:41:40;101097.78;;;11.83;100.00
70015;BME280;57358;51.094;6.760;2023-05-21T03:44:06;101075.91;;;11.65;100.00
70015;BME280;57358;51.094;6.760;2023-05-21T03:46:33;101076.50;;;11.70;100.00
70015;BME280;57358;51.094;6.760;2023-05-21T03:49:00;101094.91;;;11.87;100.00
70015;BME280;57358;51.094;6.760;2023-05-21T03:51:26;101095.72;;;11.89;100.00
70015;BME280;57358;51.094;6.760;2023-05-21T03:53:53;100985.16;;;11.23;100.00
70015;BME280;57358;51.094;6.760;2023-05-21T03:56:19;101014.91;;;11.41;100.00
70015;BME280;57358;51.094;6.760;2023-05-21T03:58:46;101100.66;;;11.95;100.00
70015;BME280;57358;51.094;6.760;2023-05-21T04:01:13;101107.78;;;11.93;100.00
70015;BME280;57358;51.094;6.760;2023-05-21T04:03:39;101083.16;;;11.77;100.00
70015;BME280;57358;51.094;6.760;2023-05-21T04:06:07;101006.63;;;11.31;100.00
70015;BME280;57358;51.094;6.760;2023-05-21T04:08:35;101102.13;;;12.01;100.00
70015;BME280;57358;51.094;6.760;2023-05-21T04:11:03;101113.50;;;12.02;100.00
70015;BME280;57358;51.094;6.760;2023-05-21T04:13:29;101108.09;;;12.05;100.00
70015;BME280;57358;51.094;6.760;2023-05-21T04:15:56;101109.78;;;12.06;100.00
70015;BME280;57358;51.094;6.760;2023-05-21T04:18:22;101107.13;;;12.06;100.00
70015;BME280;57358;51.094;6.760;2023-05-21T04:20:51;101057.63;;;11.79;100.00
70015;BME280;57358;51.094;6.760;2023-05-21T04:23:17;101105.13;;;12.11;100.00
70015;BME280;57358;51.094;6.760;2023-05-21T04:25:44;100938.47;;;11.10;100.00
70015;BME280;57358;51.094;6.760;2023-05-21T04:28:13;101023.00;;;11.71;100.00
70015;BME280;57358;51.094;6.760;2023-05-21T04:30:46;101033.59;;;11.69;100.00
70015;BME280;57358;51.094;6.760;2023-05-21T04:33:12;101030.56;;;11.77;100.00
70015;BME280;57358;51.094;6.760;2023-05-21T04:35:45;101045.84;;;11.86;100.00
70015;BME280;57358;51.094;6.760;2023-05-21T04:38:16;101114.44;;;12.34;100.00
70015;BME280;57358;51.094;6.760;2023-05-21T04:40:49;100949.44;;;11.36;100.00
70015;BME280;57358;51.094;6.760;2023-05-21T04:43:20;101115.19;;;12.36;100.00
70015;BME280;57358;51.094;6.760;2023-05-21T04:45:53;101111.56;;;12.38;100.00
70015;BME280;57358;51.094;6.760;2023-05-21T04:48:20;101103.13;;;12.32;100.00
70015;BME280;57358;51.094;6.760;2023-05-21T04:50:48;101088.44;;;12.28;100.00
70015;BME280;57358;51.094;6.760;2023-05-21T04:53:14;101033.81;;;12.00;100.00
70015;BME280;57358;51.094;6.760;2023-05-21T04:55:41;101119.59;;;12.53;100.00
70015;BME280;57358;51.094;6.760;2023-05-21T04:58:08;101098.75;;;12.48;100.00
70015;BME280;57358;51.094;6.760;2023-05-21T05:00:38;101070.09;;;12.26;100.00
70015;BME280;57358;51.094;6.760;2023-05-21T05:03:07;101119.00;;;12.64;100.00
70015;BME280;57358;51.094;6.760;2023-05-21T05:05:33;101078.44;;;12.34;100.00
70015;BME280;57358;51.094;6.760;2023-05-21T05:08:00;101114.31;;;12.69;100.00
70015;BME280;57358;51.094;6.760;2023-05-21T05:10:30;101116.72;;;12.73;100.00
70015;BME280;57358;51.094;6.760;2023-05-21T05:12:56;101099.19;;;12.72;100.00
70015;BME280;57358;51.094;6.760;2023-05-21T05:15:22;101051.88;;;12.39;100.00
70015;BME280;57358;51.094;6.760;2023-05-21T05:17:49;101068.47;;;12.57;100.00
70015;BME280;57358;51.094;6.760;2023-05-21T05:20:15;101091.91;;;12.77;100.00
70015;BME280;57358;51.094;6.760;2023-05-21T05:22:42;101111.19;;;12.94;100.00
70015;BME280;57358;51.094;6.760;2023-05-21T05:25:08;101129.56;;;12.95;100.00
70015;BME280;57358;51.094;6.760;2023-05-21T05:27:35;101094.72;;;12.90;100.00
70015;BME280;57358;51.094;6.760;2023-05-21T05:30:04;100832.28;;;11.32;100.00
70015;BME280;57358;51.094;6.760;2023-05-21T05:32:30;101036.25;;;12.68;100.00
70015;BME280;57358;51.094;6.760;2023-05-21T05:34:57;100911.66;;;11.88;100.00
70015;BME280;57358;51.094;6.760;2023-05-21T05:37:26;101017.06;;;12.66;100.00
70015;BME280;57358;51.094;6.760;2023-05-21T05:39:52;101006.19;;;12.56;100.00
70015;BME280;57358;51.094;6.760;2023-05-21T05:42:19;101106.81;;;13.25;100.00
70015;BME280;57358;51.094;6.760;2023-05-21T05:44:45;101099.13;;;13.22;100.00
70015;BME280;57358;51.094;6.760;2023-05-21T05:47:11;101035.75;;;12.93;100.00
70015;BME280;57358;51.094;6.760;2023-05-21T05:49:38;101039.16;;;12.95;100.00
70015;BME280;57358;51.094;6.760;2023-05-21T05:52:05;101109.22;;;13.45;100.00
70015;BME280;57358;51.094;6.760;2023-05-21T05:54:32;101094.25;;;13.46;100.00
70015;BME280;57358;51.094;6.760;2023-05-21T05:56:58;101072.56;;;13.25;100.00
70015;BME280;57358;51.094;6.760;2023-05-21T05:59:25;100946.13;;;12.63;100.00
70015;BME280;57358;51.094;6.760;2023-05-21T06:01:51;101067.50;;;13.22;100.00
70015;BME280;57358;51.094;6.760;2023-05-21T06:04:18;101042.16;;;13.19;100.00
70015;BME280;57358;51.094;6.760;2023-05-21T06:06:44;101092.34;;;13.64;100.00
70015;BME280;57358;51.094;6.760;2023-05-21T06:09:11;101096.28;;;13.71;100.00
70015;BME280;57358;51.094;6.760;2023-05-21T06:11:39;101082.63;;;13.64;100.00
70015;BME280;57358;51.094;6.760;2023-05-21T06:14:05;101003.03;;;13.27;100.00
70015;BME280;57358;51.094;6.760;2023-05-21T06:16:31;101079.94;;;13.94;99.36
70015;BME280;57358;51.094;6.760;2023-05-21T06:18:59;101084.69;;;14.04;98.74
70015;BME280;57358;51.094;6.760;2023-05-21T06:21:25;101058.28;;;13.89;97.41
70015;BME280;57358;51.094;6.760;2023-05-21T06:23:52;101087.31;;;14.04;97.06
70015;BME280;57358;51.094;6.760;2023-05-21T06:26:18;100927.53;;;13.26;95.83
70015;BME280;57358;51.094;6.760;2023-05-21T06:28:45;101082.63;;;14.23;95.34
70015;BME280;57358;51.094;6.760;2023-05-21T06:31:11;101047.34;;;14.10;94.83
70015;BME280;57358;51.094;6.760;2023-05-21T06:33:38;101003.81;;;13.88;93.68
70015;BME280;57358;51.094;6.760;2023-05-21T06:36:05;101023.28;;;14.29;93.30
70015;BME280;57358;51.094;6.760;2023-05-21T06:38:32;101061.38;;;14.53;92.35
70015;BME280;57358;51.094;6.760;2023-05-21T06:40:58;101016.16;;;14.72;90.87
70015;BME280;57358;51.094;6.760;2023-05-21T06:43:25;101055.66;;;14.88;89.43
70015;BME280;57358;51.094;6.760;2023-05-21T06:45:51;100926.47;;;14.29;89.12
70015;BME280;57358;51.094;6.760;2023-05-21T06:48:18;101032.75;;;15.29;87.69
70015;BME280;57358;51.094;6.760;2023-05-21T06:50:44;101032.25;;;15.36;86.65
70015;BME280;57358;51.094;6.760;2023-05-21T06:53:11;100948.56;;;14.83;85.05
70015;BME280;57358;51.094;6.760;2023-05-21T06:55:39;100950.06;;;14.87;85.43
70015;BME280;57358;51.094;6.760;2023-05-21T06:58:05;101020.09;;;15.47;84.85
70015;BME280;57358;51.094;6.760;2023-05-21T07:00:34;100981.34;;;15.20;84.40
70015;BME280;57358;51.094;6.760;2023-05-21T07:03:00;100954.69;;;14.83;84.68
70015;BME280;57358;51.094;6.760;2023-05-21T07:05:28;101023.56;;;15.34;85.61
70015;BME280;57358;51.094;6.760;2023-05-21T07:07:54;100924.66;;;15.11;85.05
70015;BME280;57358;51.094;6.760;2023-05-21T07:10:21;101006.56;;;15.64;84.70
70015;BME280;57358;51.094;6.760;2023-05-21T07:12:48;100916.72;;;15.37;84.36
70015;BME280;57358;51.094;6.760;2023-05-21T07:15:14;100951.22;;;15.87;82.49
70015;BME280;57358;51.094;6.760;2023-05-21T07:17:41;100939.22;;;16.20;80.59
70015;BME280;57358;51.094;6.760;2023-05-21T07:20:07;100895.84;;;15.97;79.56
70015;BME280;57358;51.094;6.760;2023-05-21T07:22:37;100934.84;;;16.19;79.04
70015;BME280;57358;51.094;6.760;2023-05-21T07:25:05;100968.31;;;16.57;78.68
70015;BME280;57358;51.094;6.760;2023-05-21T07:27:31;100953.81;;;16.49;77.91
70015;BME280;57358;51.094;6.760;2023-05-21T07:29:58;100848.09;;;15.85;77.95
70015;BME280;57358;51.094;6.760;2023-05-21T07:32:24;100894.41;;;16.17;78.29
70015;BME280;57358;51.094;6.760;2023-05-21T07:34:52;100943.78;;;16.42;77.44
70015;BME280;57358;51.094;6.760;2023-05-21T07:37:20;100953.22;;;16.46;77.75
70015;BME280;57358;51.094;6.760;2023-05-21T07:39:46;100885.28;;;15.84;78.75
70015;BME280;57358;51.094;6.760;2023-05-21T07:42:13;100971.16;;;16.90;78.05
70015;BME280;57358;51.094;6.760;2023-05-21T07:44:39;100862.63;;;16.41;76.65
70015;BME280;57358;51.094;6.760;2023-05-21T07:47:06;100871.50;;;16.40;76.28
70015;BME280;57358;51.094;6.760;2023-05-21T07:49:32;100895.50;;;16.73;76.39
70015;BME280;57358;51.094;6.760;2023-05-21T07:51:58;100907.38;;;17.16;75.40
70015;BME280;57358;51.094;6.760;2023-05-21T07:54:27;100865.25;;;17.00;74.95
70015;BME280;57358;51.094;6.760;2023-05-21T07:56:54;100855.72;;;16.98;74.73
70015;BME280;57358;51.094;6.760;2023-05-21T07:59:20;100889.88;;;17.25;74.06
70015;BME280;57358;51.094;6.760;2023-05-21T08:01:47;100877.94;;;17.19;73.92
70015;BME280;57358;51.094;6.760;2023-05-21T08:04:13;100849.78;;;16.83;75.03
70015;BME280;57358;51.094;6.760;2023-05-21T08:06:40;100851.13;;;16.88;75.39
70015;BME280;57358;51.094;6.760;2023-05-21T08:09:06;100866.06;;;16.89;75.18
70015;BME280;57358;51.094;6.760;2023-05-21T08:11:33;100897.34;;;17.20;74.71
70015;BME280;57358;51.094;6.760;2023-05-21T08:13:59;100918.59;;;17.53;75.16
70015;BME280;57358;51.094;6.760;2023-05-21T08:16:26;100818.03;;;17.17;75.09
70015;BME280;57358;51.094;6.760;2023-05-21T08:18:52;100897.00;;;18.14;72.78
70015;BME280;57358;51.094;6.760;2023-05-21T08:21:19;100851.97;;;18.02;71.77
70015;BME280;57358;51.094;6.760;2023-05-21T08:23:48;100852.84;;;17.80;72.29
70015;BME280;57358;51.094;6.760;2023-05-21T08:26:17;100842.72;;;17.73;71.62
70015;BME280;57358;51.094;6.760;2023-05-21T08:28:43;100795.47;;;17.56;72.56
70015;BME280;57358;51.094;6.760;2023-05-21T08:31:09;100866.66;;;18.28;71.24
70015;BME280;57358;51.094;6.760;2023-05-21T08:33:36;100844.19;;;18.32;70.73
70015;BME280;57358;51.094;6.760;2023-05-21T08:36:07;100799.06;;;18.10;71.80
70015;BME280;57358;51.094;6.760;2023-05-21T08:38:33;100879.84;;;18.51;71.43
70015;BME280;57358;51.094;6.760;2023-05-21T08:41:00;100742.22;;;18.12;70.04
70015;BME280;57358;51.094;6.760;2023-05-21T08:43:27;100727.53;;;18.29;68.67
70015;BME280;57358;51.094;6.760;2023-05-21T08:45:55;100799.53;;;18.26;70.57
70015;BME280;57358;51.094;6.760;2023-05-21T08:48:22;100846.22;;;18.40;71.14
70015;BME280;57358;51.094;6.760;2023-05-21T08:50:50;100805.16;;;18.33;70.37
70015;BME280;57358;51.094;6.760;2023-05-21T08:53:17;100826.50;;;18.43;70.36
70015;BME280;57358;51.094;6.760;2023-05-21T08:55:54;100736.56;;;18.06;70.11
70015;BME280;57358;51.094;6.760;2023-05-21T08:58:23;100765.69;;;18.49;68.50
70015;BME280;57358;51.094;6.760;2023-05-21T09:00:49;100741.78;;;18.28;69.62
70015;BME280;57358;51.094;6.760;2023-05-21T09:03:16;100809.06;;;18.50;70.24
70015;BME280;57358;51.094;6.760;2023-05-21T09:05:44;100790.53;;;18.60;71.65
70015;BME280;57358;51.094;6.760;2023-05-21T09:08:17;100808.44;;;19.40;68.34
70015;BME280;57358;51.094;6.760;2023-05-21T09:10:47;100826.16;;;19.91;68.58
70015;BME280;57358;51.094;6.760;2023-05-21T09:13:16;100742.59;;;19.73;66.04
70015;BME280;57358;51.094;6.760;2023-05-21T09:15:44;100714.50;;;19.59;65.61
70015;BME280;57358;51.094;6.760;2023-05-21T09:18:10;100688.25;;;19.25;65.39
70015;BME280;57358;51.094;6.760;2023-05-21T09:20:38;100717.84;;;19.51;66.20
70015;BME280;57358;51.094;6.760;2023-05-21T09:23:06;100680.34;;;18.73;66.46
70015;BME280;57358;51.094;6.760;2023-05-21T09:25:37;100769.81;;;19.46;66.98
70015;BME280;57358;51.094;6.760;2023-05-21T09:28:10;100687.41;;;19.25;66.19
70015;BME280;57358;51.094;6.760;2023-05-21T09:30:45;100744.22;;;19.55;66.79
70015;BME280;57358;51.094;6.760;2023-05-21T09:33:23;100762.22;;;20.30;65.41
70015;BME280;57358;51.094;6.760;2023-05-21T09:35:49;100739.78;;;20.43;64.37
70015;BME280;57358;51.094;6.760;2023-05-21T09:38:16;100675.84;;;20.23;63.60
70015;BME280;57358;51.094;6.760;2023-05-21T09:40:43;100700.78;;;20.22;63.68
70015;BME280;57358;51.094;6.760;2023-05-21T09:43:14;100741.16;;;20.47;65.04
70015;BME280;57358;51.094;6.760;2023-05-21T09:45:53;100664.06;;;20.06;64.27
70015;BME280;57358;51.094;6.760;2023-05-21T09:48:41;100767.63;;;20.78;65.33
70015;BME280;57358;51.094;6.760;2023-05-21T09:51:11;100738.75;;;20.53;64.60
70015;BME280;57358;51.094;6.760;2023-05-21T09:53:55;100732.06;;;20.20;65.67
70015;BME280;57358;51.094;6.760;2023-05-21T09:56:26;100733.53;;;20.81;63.83
70015;BME280;57358;51.094;6.760;2023-05-21T09:58:56;100751.69;;;21.05;64.16
70015;BME280;57358;51.094;6.760;2023-05-21T10:01:23;100639.75;;;20.76;62.03
70015;BME280;57358;51.094;6.760;2023-05-21T10:03:53;100715.00;;;21.07;62.55
70015;BME280;57358;51.094;6.760;2023-05-21T10:06:30;100614.41;;;20.25;63.08
70015;BME280;57358;51.094;6.760;2023-05-21T10:08:59;100718.41;;;20.62;64.10
70015;BME280;57358;51.094;6.760;2023-05-21T10:11:30;100752.53;;;20.96;64.21
70015;BME280;57358;51.094;6.760;2023-05-21T10:14:00;100664.03;;;20.83;62.75
70015;BME280;57358;51.094;6.760;2023-05-21T10:16:32;100702.50;;;21.08;62.13
70015;BME280;57358;51.094;6.760;2023-05-21T10:18:59;100655.47;;;21.07;61.22
70015;BME280;57358;51.094;6.760;2023-05-21T10:21:26;100671.50;;;21.07;61.27
70015;BME280;57358;51.094;6.760;2023-05-21T10:23:54;100641.41;;;20.87;61.35
70015;BME280;57358;51.094;6.760;2023-05-21T10:26:24;100715.94;;;21.16;62.22
70015;BME280;57358;51.094;6.760;2023-05-21T10:28:53;100793.81;;;21.49;63.33
70015;BME280;57358;51.094;6.760;2023-05-21T10:31:21;100750.03;;;21.22;62.51
70015;BME280;57358;51.094;6.760;2023-05-21T10:33:49;100719.88;;;21.40;62.11
70015;BME280;57358;51.094;6.760;2023-05-21T10:36:16;100762.31;;;22.06;61.50
70015;BME280;57358;51.094;6.760;2023-05-21T10:38:45;100645.09;;;21.49;60.62
70015;BME280;57358;51.094;6.760;2023-05-21T10:41:14;100726.13;;;22.30;60.61
70015;BME280;57358;51.094;6.760;2023-05-21T10:43:50;100618.44;;;22.46;57.60
70015;BME280;57358;51.094;6.760;2023-05-21T10:49:33;100722.16;;;22.34;60.19
70015;BME280;57358;51.094;6.760;2023-05-21T10:55:19;100734.03;;;22.92;58.60
70015;BME280;57358;51.094;6.760;2023-05-21T10:58:08;100785.59;;;22.50;60.55
70015;BME280;57358;51.094;6.760;2023-05-21T11:00:37;100691.38;;;22.30;58.79
70015;BME280;57358;51.094;6.760;2023-05-21T11:03:05;100730.69;;;22.90;58.64
70015;BME280;57358;51.094;6.760;2023-05-21T11:05:54;100631.31;;;22.93;56.57
70015;BME280;57358;51.094;6.760;2023-05-21T11:10:53;100637.13;;;22.38;57.11
70015;BME280;57358;51.094;6.760;2023-05-21T11:13:20;100709.94;;;22.92;58.00
70015;BME280;57358;51.094;6.760;2023-05-21T11:18:23;100677.22;;;22.38;58.15
70015;BME280;57358;51.094;6.760;2023-05-21T11:20:50;100665.56;;;22.03;58.77
70015;BME280;57358;51.094;6.760;2023-05-21T11:23:20;100775.00;;;22.22;60.86
70015;BME280;57358;51.094;6.760;2023-05-21T11:26:00;100735.19;;;22.55;59.25
70015;BME280;57358;51.094;6.760;2023-05-21T11:28:33;100654.25;;;22.27;58.61
70015;BME280;57358;51.094;6.760;2023-05-21T11:33:46;100714.16;;;23.37;57.39
70015;BME280;57358;51.094;6.760;2023-05-21T11:36:13;100703.38;;;23.13;57.38
70015;BME280;57358;51.094;6.760;2023-05-21T11:38:39;100597.97;;;22.71;56.53
70015;BME280;57358;51.094;6.760;2023-05-21T11:41:08;100720.31;;;23.21;57.43
70015;BME280;57358;51.094;6.760;2023-05-21T11:43:39;100801.50;;;23.30;59.21
70015;BME280;57358;51.094;6.760;2023-05-21T11:46:05;100828.94;;;23.24;59.74
70015;BME280;57358;51.094;6.760;2023-05-21T11:48:32;100722.69;;;23.41;57.82
70015;BME280;57358;51.094;6.760;2023-05-21T11:50:59;100784.69;;;23.12;59.37
70015;BME280;57358;51.094;6.760;2023-05-21T11:53:31;100712.72;;;23.08;57.80
70015;BME280;57358;51.094;6.760;2023-05-21T11:56:00;100720.91;;;23.49;56.69
70015;BME280;57358;51.094;6.760;2023-05-21T11:58:30;100714.53;;;23.50;57.14
70015;BME280;57358;51.094;6.760;2023-05-21T12:00:56;100725.34;;;23.33;57.24
70015;BME280;57358;51.094;6.760;2023-05-21T12:03:23;100727.56;;;23.03;58.37
70015;BME280;57358;51.094;6.760;2023-05-21T12:05:52;100726.38;;;22.45;60.23
70015;BME280;57358;51.094;6.760;2023-05-21T12:08:22;100820.88;;;22.98;60.31
70015;BME280;57358;51.094;6.760;2023-05-21T12:10:59;100651.88;;;22.50;59.81
70015;BME280;57358;51.094;6.760;2023-05-21T12:13:27;100740.16;;;23.10;59.15
70015;BME280;57358;51.094;6.760;2023-05-21T12:15:54;100690.63;;;23.06;57.72
70015;BME280;57358;51.094;6.760;2023-05-21T12:18:20;100761.03;;;23.41;58.14
70015;BME280;57358;51.094;6.760;2023-05-21T12:20:47;100705.13;;;23.38;57.65
70015;BME280;57358;51.094;6.760;2023-05-21T12:23:22;100707.75;;;23.22;57.23
70015;BME280;57358;51.094;6.760;2023-05-21T12:25:50;100762.63;;;23.18;59.31
70015;BME280;57358;51.094;6.760;2023-05-21T12:28:16;100760.16;;;22.98;59.30
70015;BME280;57358;51.094;6.760;2023-05-21T12:30:43;100817.13;;;23.43;59.29
70015;BME280;57358;51.094;6.760;2023-05-21T12:33:09;100756.69;;;23.40;58.78
70015;BME280;57358;51.094;6.760;2023-05-21T12:35:37;100740.56;;;23.24;58.66
70015;BME280;57358;51.094;6.760;2023-05-21T12:38:03;100709.84;;;23.53;57.24
70015;BME280;57358;51.094;6.760;2023-05-21T12:40:34;100804.41;;;23.87;58.42
70015;BME280;57358;51.094;6.760;2023-05-21T12:43:05;100754.75;;;23.75;57.72
70015;BME280;57358;51.094;6.760;2023-05-21T12:45:32;100760.28;;;23.65;58.39
70015;BME280;57358;51.094;6.760;2023-05-21T12:48:02;100724.25;;;23.60;57.83
70015;BME280;57358;51.094;6.760;2023-05-21T12:50:28;100614.88;;;22.72;58.64
70015;BME280;57358;51.094;6.760;2023-05-21T12:52:56;100723.47;;;23.17;59.24
70015;BME280;57358;51.094;6.760;2023-05-21T12:55:24;100795.16;;;23.39;59.98
70015;BME280;57358;51.094;6.760;2023-05-21T12:58:03;100769.91;;;24.01;58.24
70015;BME280;57358;51.094;6.760;2023-05-21T13:00:33;100798.22;;;24.03;58.27
70015;BME280;57358;51.094;6.760;2023-05-21T13:03:01;100674.88;;;24.03;56.22
70015;BME280;57358;51.094;6.760;2023-05-21T13:05:30;100671.88;;;23.74;56.11
70015;BME280;57358;51.094;6.760;2023-05-21T13:07:56;100688.41;;;23.53;57.84